sensor_id;sensor_type;location;lat;lon;timestamp;P1;durP1;ratioP1;P2;durP2;ratioP2
16430;SDS011;8325;49.284;7.238;2023-06-22T00:00:55;11.95;;;7.95;;
16430;SDS011;8325;49.284;7.238;2023-06-22T00:05:07;8.80;;;7.90;;
16430;SDS011;8325;49.284;7.238;2023-06-22T00:09:19;8.85;;;7.53;;
16430;SDS011;8325;49.284;7.238;2023-06-22T00:13:30;9.10;;;8.20;;
16430;SDS011;8325;49.284;7.238;2023-06-22T00:17:42;11.60;;;9.10;;
16430;SDS011;8325;49.284;7.238;2023-06-22T00:21:54;11.93;;;8.50;;
16430;SDS011;8325;49.284;7.238;2023-06-22T00:26:05;10.90;;;7.80;;
16430;SDS011;8325;49.284;7.238;2023-06-22T00:30:17;13.30;;;8.70;;
16430;SDS011;8325;49.284;7.238;2023-06-22T00:34:29;8.77;;;7.88;;
16430;SDS011;8325;49.284;7.238;2023-06-22T00:38:43;10.77;;;8.15;;
16430;SDS011;8325;49.284;7.238;2023-06-22T00:42:55;11.13;;;8.55;;
16430;SDS011;8325;49.284;7.238;2023-06-22T00:47:10;10.15;;;8.52;;
16430;SDS011;8325;49.284;7.238;2023-06-22T00:51:24;12.25;;;8.18;;
16430;SDS011;8325;49.284;7.238;2023-06-22T00:55:36;9.25;;;8.02;;
16430;SDS011;8325;49.284;7.238;2023-06-22T00:59:56;12.88;;;9.38;;
16430;SDS011;8325;49.284;7.238;2023-06-22T01:04:08;10.13;;;9.13;;
16430;SDS011;8325;49.284;7.238;2023-06-22T01:08:29;11.88;;;9.45;;
16430;SDS011;8325;49.284;7.238;2023-06-22T01:12:45;14.68;;;10.05;;
16430;SDS011;8325;49.284;7.238;2023-06-22T01:17:03;12.35;;;9.25;;
16430;SDS011;8325;49.284;7.238;2023-06-22T01:21:18;12.98;;;9.60;;
16430;SDS011;8325;49.284;7.238;2023-06-22T01:25:33;12.43;;;9.43;;
16430;SDS011;8325;49.284;7.238;2023-06-22T01:29:52;13.50;;;9.70;;
16430;SDS011;8325;49.284;7.238;2023-06-22T01:34:12;13.50;;;10.68;;
16430;SDS011;8325;49.284;7.238;2023-06-22T01:38:25;15.35;;;11.20;;
16430;SDS011;8325;49.284;7.238;2023-06-22T01:42:38;14.45;;;10.68;;
16430;SDS011;8325;49.284;7.238;2023-06-22T01:46:51;12.93;;;9.95;;
16430;SDS011;8325;49.284;7.238;2023-06-22T01:51:04;13.68;;;10.43;;
16430;SDS011;8325;49.284;7.238;2023-06-22T01:55:16;13.10;;;10.52;;
16430;SDS011;8325;49.284;7.238;2023-06-22T01:59:48;13.15;;;10.55;;
16430;SDS011;8325;49.284;7.238;2023-06-22T02:04:18;14.25;;;11.00;;
16430;SDS011;8325;49.284;7.238;2023-06-22T02:08:40;13.18;;;10.27;;
16430;SDS011;8325;49.284;7.238;2023-06-22T02:12:57;12.43;;;9.63;;
16430;SDS011;8325;49.284;7.238;2023-06-22T02:17:10;11.07;;;8.75;;
16430;SDS011;8325;49.284;7.238;2023-06-22T02:21:23;9.68;;;8.68;;
16430;SDS011;8325;49.284;7.238;2023-06-22T02:25:35;10.18;;;8.20;;
16430;SDS011;8325;49.284;7.238;2023-06-22T02:29:47;12.20;;;8.23;;
16430;SDS011;8325;49.284;7.238;2023-06-22T02:33:58;9.30;;;8.30;;
16430;SDS011;8325;49.284;7.238;2023-06-22T02:38:10;9.23;;;8.02;;
16430;SDS011;8325;49.284;7.238;2023-06-22T02:42:22;10.18;;;8.20;;
16430;SDS011;8325;49.284;7.238;2023-06-22T02:46:34;10.63;;;8.18;;
16430;SDS011;8325;49.284;7.238;2023-06-22T02:50:47;13.32;;;10.23;;
16430;SDS011;8325;49.284;7.238;2023-06-22T02:54:58;11.75;;;10.20;;
16430;SDS011;8325;49.284;7.238;2023-06-22T02:59:11;13.18;;;9.80;;
16430;SDS011;8325;49.284;7.238;2023-06-22T03:03:23;13.07;;;10.32;;
16430;SDS011;8325;49.284;7.238;2023-06-22T03:07:37;12.93;;;10.07;;
16430;SDS011;8325;49.284;7.238;2023-06-22T03:11:49;11.60;;;10.40;;
16430;SDS011;8325;49.284;7.238;2023-06-22T03:16:01;12.32;;;10.77;;
16430;SDS011;8325;49.284;7.238;2023-06-22T03:20:13;14.75;;;11.25;;
16430;SDS011;8325;49.284;7.238;2023-06-22T03:24:25;14.00;;;11.40;;
16430;SDS011;8325;49.284;7.238;2023-06-22T03:28:38;17.13;;;13.20;;
16430;SDS011;8325;49.284;7.238;2023-06-22T03:32:51;15.25;;;12.25;;
16430;SDS011;8325;49.284;7.238;2023-06-22T03:37:03;15.35;;;12.60;;
16430;SDS011;8325;49.284;7.238;2023-06-22T03:41:15;14.55;;;12.13;;
16430;SDS011;8325;49.284;7.238;2023-06-22T03:45:27;13.73;;;11.73;;
16430;SDS011;8325;49.284;7.238;2023-06-22T03:49:39;16.15;;;11.10;;
16430;SDS011;8325;49.284;7.238;2023-06-22T03:53:51;12.95;;;11.43;;
16430;SDS011;8325;49.284;7.238;2023-06-22T03:58:02;12.27;;;10.98;;
16430;SDS011;8325;49.284;7.238;2023-06-22T04:02:17;14.50;;;10.52;;
16430;SDS011;8325;49.284;7.238;2023-06-22T04:06:28;14.90;;;11.80;;
16430;SDS011;8325;49.284;7.238;2023-06-22T04:10:40;13.85;;;10.55;;
16430;SDS011;8325;49.284;7.238;2023-06-22T04:14:52;12.25;;;10.55;;
16430;SDS011;8325;49.284;7.238;2023-06-22T04:19:03;12.20;;;10.65;;
16430;SDS011;8325;49.284;7.238;2023-06-22T04:23:15;13.40;;;10.80;;
16430;SDS011;8325;49.284;7.238;2023-06-22T04:27:27;12.32;;;10.95;;
16430;SDS011;8325;49.284;7.238;2023-06-22T04:31:38;13.40;;;11.10;;
16430;SDS011;8325;49.284;7.238;2023-06-22T04:35:50;13.27;;;10.85;;
16430;SDS011;8325;49.284;7.238;2023-06-22T04:40:02;13.27;;;11.88;;
16430;SDS011;8325;49.284;7.238;2023-06-22T04:44:17;13.98;;;11.48;;
16430;SDS011;8325;49.284;7.238;2023-06-22T04:48:36;13.43;;;11.13;;
16430;SDS011;8325;49.284;7.238;2023-06-22T04:52:47;11.80;;;10.30;;
16430;SDS011;8325;49.284;7.238;2023-06-22T04:57:03;11.98;;;10.20;;
16430;SDS011;8325;49.284;7.238;2023-06-22T05:01:16;14.88;;;11.23;;
16430;SDS011;8325;49.284;7.238;2023-06-22T05:05:28;12.38;;;10.25;;
16430;SDS011;8325;49.284;7.238;2023-06-22T05:09:43;11.32;;;9.68;;
16430;SDS011;8325;49.284;7.238;2023-06-22T05:13:55;12.65;;;10.15;;
16430;SDS011;8325;49.284;7.238;2023-06-22T05:18:13;11.70;;;9.60;;
16430;SDS011;8325;49.284;7.238;2023-06-22T05:22:25;10.25;;;9.07;;
16430;SDS011;8325;49.284;7.238;2023-06-22T05:26:40;11.43;;;8.55;;
16430;SDS011;8325;49.284;7.238;2023-06-22T05:30:51;10.57;;;9.55;;
16430;SDS011;8325;49.284;7.238;2023-06-22T05:35:03;10.60;;;9.15;;
16430;SDS011;8325;49.284;7.238;2023-06-22T05:39:15;11.10;;;9.70;;
16430;SDS011;8325;49.284;7.238;2023-06-22T05:43:27;13.65;;;9.57;;
16430;SDS011;8325;49.284;7.238;2023-06-22T05:47:39;11.77;;;9.90;;
16430;SDS011;8325;49.284;7.238;2023-06-22T05:51:50;10.45;;;9.02;;
16430;SDS011;8325;49.284;7.238;2023-06-22T05:56:02;12.90;;;9.68;;
16430;SDS011;8325;49.284;7.238;2023-06-22T06:00:15;11.38;;;8.88;;
16430;SDS011;8325;49.284;7.238;2023-06-22T06:04:27;10.95;;;9.18;;
16430;SDS011;8325;49.284;7.238;2023-06-22T06:08:38;11.85;;;9.20;;
16430;SDS011;8325;49.284;7.238;2023-06-22T06:12:50;10.82;;;9.70;;
16430;SDS011;8325;49.284;7.238;2023-06-22T06:17:02;10.63;;;9.55;;
16430;SDS011;8325;49.284;7.238;2023-06-22T06:21:14;11.32;;;9.50;;
16430;SDS011;8325;49.284;7.238;2023-06-22T06:25:25;10.25;;;9.25;;
16430;SDS011;8325;49.284;7.238;2023-06-22T06:29:37;11.38;;;9.95;;
16430;SDS011;8325;49.284;7.238;2023-06-22T06:33:49;10.98;;;9.75;;
16430;SDS011;8325;49.284;7.238;2023-06-22T06:38:00;11.35;;;9.75;;
16430;SDS011;8325;49.284;7.238;2023-06-22T06:42:12;10.25;;;9.30;;
16430;SDS011;8325;49.284;7.238;2023-06-22T06:46:24;11.18;;;9.95;;
16430;SDS011;8325;49.284;7.238;2023-06-22T06:50:36;10.68;;;9.18;;
16430;SDS011;8325;49.284;7.238;2023-06-22T06:54:47;10.80;;;9.23;;
16430;SDS011;8325;49.284;7.238;2023-06-22T06:58:59;10.98;;;9.77;;
16430;SDS011;8325;49.284;7.238;2023-06-22T07:03:10;10.80;;;9.68;;
16430;SDS011;8325;49.284;7.238;2023-06-22T07:07:22;10.65;;;9.63;;
16430;SDS011;8325;49.284;7.238;2023-06-22T07:11:35;10.85;;;9.57;;
16430;SDS011;8325;49.284;7.238;2023-06-22T07:15:47;10.70;;;9.43;;
16430;SDS011;8325;49.284;7.238;2023-06-22T07:19:59;12.23;;;9.52;;
16430;SDS011;8325;49.284;7.238;2023-06-22T07:24:11;11.43;;;9.93;;
16430;SDS011;8325;49.284;7.238;2023-06-22T07:28:22;11.10;;;9.60;;
16430;SDS011;8325;49.284;7.238;2023-06-22T07:32:34;11.02;;;9.43;;
16430;SDS011;8325;49.284;7.238;2023-06-22T07:36:46;10.38;;;9.35;;
16430;SDS011;8325;49.284;7.238;2023-06-22T07:40:58;12.60;;;9.02;;
16430;SDS011;8325;49.284;7.238;2023-06-22T07:45:10;12.10;;;9.23;;
16430;SDS011;8325;49.284;7.238;2023-06-22T07:49:21;10.82;;;9.20;;
16430;SDS011;8325;49.284;7.238;2023-06-22T07:53:33;9.15;;;8.13;;
16430;SDS011;8325;49.284;7.238;2023-06-22T07:57:46;10.52;;;9.02;;
16430;SDS011;8325;49.284;7.238;2023-06-22T08:02:00;8.70;;;7.90;;
16430;SDS011;8325;49.284;7.238;2023-06-22T08:06:12;10.68;;;8.20;;
16430;SDS011;8325;49.284;7.238;2023-06-22T08:10:24;9.25;;;7.60;;
16430;SDS011;8325;49.284;7.238;2023-06-22T08:14:37;10.82;;;7.65;;
16430;SDS011;8325;49.284;7.238;2023-06-22T08:18:49;9.77;;;7.20;;
16430;SDS011;8325;49.284;7.238;2023-06-22T08:23:01;8.20;;;7.18;;
16430;SDS011;8325;49.284;7.238;2023-06-22T08:27:17;8.18;;;7.43;;
16430;SDS011;8325;49.284;7.238;2023-06-22T08:31:32;10.15;;;8.07;;
16430;SDS011;8325;49.284;7.238;2023-06-22T08:35:46;8.77;;;7.85;;
16430;SDS011;8325;49.284;7.238;2023-06-22T08:39:58;8.07;;;7.28;;
16430;SDS011;8325;49.284;7.238;2023-06-22T08:44:11;8.68;;;7.75;;
16430;SDS011;8325;49.284;7.238;2023-06-22T08:48:22;9.52;;;7.68;;
16430;SDS011;8325;49.284;7.238;2023-06-22T08:52:34;9.40;;;7.30;;
16430;SDS011;8325;49.284;7.238;2023-06-22T08:56:46;7.88;;;7.07;;
16430;SDS011;8325;49.284;7.238;2023-06-22T09:00:57;8.23;;;7.40;;
16430;SDS011;8325;49.284;7.238;2023-06-22T09:05:12;8.05;;;6.68;;
16430;SDS011;8325;49.284;7.238;2023-06-22T09:09:24;7.07;;;6.38;;
16430;SDS011;8325;49.284;7.238;2023-06-22T09:13:36;6.95;;;6.35;;
16430;SDS011;8325;49.284;7.238;2023-06-22T09:17:48;7.65;;;6.63;;
16430;SDS011;8325;49.284;7.238;2023-06-22T09:22:00;6.25;;;5.65;;
16430;SDS011;8325;49.284;7.238;2023-06-22T09:26:11;6.63;;;5.80;;
16430;SDS011;8325;49.284;7.238;2023-06-22T09:30:23;7.05;;;5.82;;
16430;SDS011;8325;49.284;7.238;2023-06-22T09:34:35;7.25;;;5.70;;
16430;SDS011;8325;49.284;7.238;2023-06-22T09:38:47;8.93;;;6.00;;
16430;SDS011;8325;49.284;7.238;2023-06-22T09:42:59;6.80;;;5.68;;
16430;SDS011;8325;49.284;7.238;2023-06-22T09:47:10;7.25;;;5.22;;
16430;SDS011;8325;49.284;7.238;2023-06-22T09:51:22;7.55;;;6.75;;
16430;SDS011;8325;49.284;7.238;2023-06-22T09:55:35;8.68;;;6.13;;
16430;SDS011;8325;49.284;7.238;2023-06-22T09:59:46;6.28;;;5.68;;
16430;SDS011;8325;49.284;7.238;2023-06-22T10:04:02;8.77;;;6.07;;
16430;SDS011;8325;49.284;7.238;2023-06-22T10:08:14;8.57;;;6.30;;
16430;SDS011;8325;49.284;7.238;2023-06-22T10:12:27;7.75;;;5.75;;
16430;SDS011;8325;49.284;7.238;2023-06-22T10:16:38;8.32;;;6.30;;
16430;SDS011;8325;49.284;7.238;2023-06-22T10:20:53;8.15;;;5.82;;
16430;SDS011;8325;49.284;7.238;2023-06-22T10:25:04;10.45;;;6.47;;
16430;SDS011;8325;49.284;7.238;2023-06-22T10:29:16;9.00;;;5.93;;
16430;SDS011;8325;49.284;7.238;2023-06-22T10:33:28;8.73;;;6.32;;
16430;SDS011;8325;49.284;7.238;2023-06-22T10:37:40;9.75;;;5.80;;
16430;SDS011;8325;49.284;7.238;2023-06-22T10:41:53;8.00;;;5.72;;
16430;SDS011;8325;49.284;7.238;2023-06-22T10:46:07;9.15;;;6.15;;
16430;SDS011;8325;49.284;7.238;2023-06-22T10:50:19;7.47;;;6.32;;
16430;SDS011;8325;49.284;7.238;2023-06-22T10:54:32;7.82;;;6.00;;
16430;SDS011;8325;49.284;7.238;2023-06-22T10:58:44;8.77;;;5.97;;
16430;SDS011;8325;49.284;7.238;2023-06-22T11:02:57;9.80;;;6.32;;
16430;SDS011;8325;49.284;7.238;2023-06-22T11:07:09;8.98;;;5.78;;
16430;SDS011;8325;49.284;7.238;2023-06-22T11:11:21;12.57;;;6.68;;
16430;SDS011;8325;49.284;7.238;2023-06-22T11:15:33;10.55;;;5.90;;
16430;SDS011;8325;49.284;7.238;2023-06-22T11:19:46;8.98;;;5.60;;
16430;SDS011;8325;49.284;7.238;2023-06-22T11:23:58;9.02;;;5.50;;
16430;SDS011;8325;49.284;7.238;2023-06-22T11:28:10;8.27;;;5.55;;
16430;SDS011;8325;49.284;7.238;2023-06-22T11:32:22;8.25;;;5.93;;
16430;SDS011;8325;49.284;7.238;2023-06-22T11:36:34;9.13;;;5.65;;
16430;SDS011;8325;49.284;7.238;2023-06-22T11:40:46;6.45;;;5.20;;
16430;SDS011;8325;49.284;7.238;2023-06-22T11:44:58;7.03;;;5.53;;
16430;SDS011;8325;49.284;7.238;2023-06-22T11:49:10;10.35;;;5.80;;
16430;SDS011;8325;49.284;7.238;2023-06-22T11:53:22;7.70;;;5.18;;
16430;SDS011;8325;49.284;7.238;2023-06-22T11:57:38;9.82;;;6.15;;
16430;SDS011;8325;49.284;7.238;2023-06-22T12:01:50;7.60;;;5.80;;
16430;SDS011;8325;49.284;7.238;2023-06-22T12:06:02;9.57;;;5.82;;
16430;SDS011;8325;49.284;7.238;2023-06-22T12:10:14;9.60;;;5.53;;
16430;SDS011;8325;49.284;7.238;2023-06-22T12:14:26;10.82;;;5.53;;
16430;SDS011;8325;49.284;7.238;2023-06-22T12:18:40;12.77;;;5.80;;
16430;SDS011;8325;49.284;7.238;2023-06-22T12:22:52;12.45;;;6.07;;
16430;SDS011;8325;49.284;7.238;2023-06-22T12:27:05;11.30;;;6.28;;
16430;SDS011;8325;49.284;7.238;2023-06-22T12:31:17;11.55;;;6.10;;
16430;SDS011;8325;49.284;7.238;2023-06-22T12:35:29;8.85;;;6.13;;
16430;SDS011;8325;49.284;7.238;2023-06-22T12:39:40;8.85;;;6.13;;
16430;SDS011;8325;49.284;7.238;2023-06-22T12:43:52;9.10;;;6.30;;
16430;SDS011;8325;49.284;7.238;2023-06-22T12:48:04;12.65;;;6.25;;
16430;SDS011;8325;49.284;7.238;2023-06-22T12:52:16;14.93;;;6.13;;
16430;SDS011;8325;49.284;7.238;2023-06-22T12:56:27;7.85;;;5.55;;
16430;SDS011;8325;49.284;7.238;2023-06-22T13:00:39;10.05;;;5.28;;
16430;SDS011;8325;49.284;7.238;2023-06-22T13:04:51;11.48;;;5.22;;
16430;SDS011;8325;49.284;7.238;2023-06-22T13:09:02;9.07;;;5.53;;
16430;SDS011;8325;49.284;7.238;2023-06-22T13:13:19;8.80;;;5.25;;
16430;SDS011;8325;49.284;7.238;2023-06-22T13:17:31;12.60;;;4.78;;
16430;SDS011;8325;49.284;7.238;2023-06-22T13:21:42;10.70;;;5.22;;
16430;SDS011;8325;49.284;7.238;2023-06-22T13:25:54;11.77;;;5.75;;
16430;SDS011;8325;49.284;7.238;2023-06-22T13:30:06;7.55;;;4.55;;
16430;SDS011;8325;49.284;7.238;2023-06-22T13:34:18;9.40;;;5.53;;
16430;SDS011;8325;49.284;7.238;2023-06-22T13:38:29;12.75;;;4.75;;
16430;SDS011;8325;49.284;7.238;2023-06-22T13:42:42;12.45;;;5.10;;
16430;SDS011;8325;49.284;7.238;2023-06-22T13:46:54;7.45;;;4.63;;
16430;SDS011;8325;49.284;7.238;2023-06-22T13:51:06;10.35;;;5.00;;
16430;SDS011;8325;49.284;7.238;2023-06-22T13:55:18;7.72;;;4.97;;
16430;SDS011;8325;49.284;7.238;2023-06-22T13:59:32;9.77;;;4.57;;
16430;SDS011;8325;49.284;7.238;2023-06-22T14:03:43;8.80;;;4.50;;
16430;SDS011;8325;49.284;7.238;2023-06-22T14:07:58;8.63;;;4.28;;
16430;SDS011;8325;49.284;7.238;2023-06-22T14:12:09;7.57;;;3.97;;
16430;SDS011;8325;49.284;7.238;2023-06-22T14:16:21;7.25;;;4.22;;
16430;SDS011;8325;49.284;7.238;2023-06-22T14:20:33;13.52;;;3.92;;
16430;SDS011;8325;49.284;7.238;2023-06-22T14:24:45;6.78;;;3.10;;
16430;SDS011;8325;49.284;7.238;2023-06-22T14:28:57;6.68;;;3.63;;
16430;SDS011;8325;49.284;7.238;2023-06-22T14:33:08;7.28;;;3.10;;
16430;SDS011;8325;49.284;7.238;2023-06-22T14:37:20;5.35;;;2.92;;
16430;SDS011;8325;49.284;7.238;2023-06-22T14:41:31;8.45;;;3.40;;
16430;SDS011;8325;49.284;7.238;2023-06-22T14:45:43;9.38;;;3.53;;
16430;SDS011;8325;49.284;7.238;2023-06-22T14:49:55;9.50;;;3.50;;
16430;SDS011;8325;49.284;7.238;2023-06-22T14:54:07;5.45;;;2.90;;
16430;SDS011;8325;49.284;7.238;2023-06-22T14:58:18;7.53;;;3.33;;
16430;SDS011;8325;49.284;7.238;2023-06-22T15:02:30;5.65;;;2.50;;
16430;SDS011;8325;49.284;7.238;2023-06-22T15:06:42;9.48;;;2.90;;
16430;SDS011;8325;49.284;7.238;2023-06-22T15:10:57;5.25;;;2.65;;
16430;SDS011;8325;49.284;7.238;2023-06-22T15:15:10;6.65;;;2.78;;
16430;SDS011;8325;49.284;7.238;2023-06-22T15:19:22;6.25;;;3.22;;
16430;SDS011;8325;49.284;7.238;2023-06-22T15:23:33;6.78;;;2.70;;
16430;SDS011;8325;49.284;7.238;2023-06-22T15:27:45;7.82;;;2.95;;
16430;SDS011;8325;49.284;7.238;2023-06-22T15:31:57;8.15;;;2.90;;
16430;SDS011;8325;49.284;7.238;2023-06-22T15:36:08;5.28;;;2.50;;
16430;SDS011;8325;49.284;7.238;2023-06-22T15:40:20;4.63;;;2.35;;
16430;SDS011;8325;49.284;7.238;2023-06-22T15:44:32;7.40;;;2.67;;
16430;SDS011;8325;49.284;7.238;2023-06-22T15:48:43;5.80;;;2.67;;
16430;SDS011;8325;49.284;7.238;2023-06-22T15:52:57;3.47;;;2.78;;
16430;SDS011;8325;49.284;7.238;2023-06-22T15:57:09;4.10;;;2.35;;
16430;SDS011;8325;49.284;7.238;2023-06-22T16:01:24;5.55;;;2.97;;
16430;SDS011;8325;49.284;7.238;2023-06-22T16:05:35;6.53;;;3.03;;
16430;SDS011;8325;49.284;7.238;2023-06-22T16:09:47;7.65;;;3.08;;
16430;SDS011;8325;49.284;7.238;2023-06-22T16:13:58;3.13;;;2.83;;
16430;SDS011;8325;49.284;7.238;2023-06-22T16:18:10;5.82;;;2.90;;
16430;SDS011;8325;49.284;7.238;2023-06-22T16:22:22;6.22;;;3.00;;
16430;SDS011;8325;49.284;7.238;2023-06-22T16:26:40;8.23;;;2.88;;
16430;SDS011;8325;49.284;7.238;2023-06-22T16:30:52;4.70;;;2.95;;
16430;SDS011;8325;49.284;7.238;2023-06-22T16:35:04;4.72;;;2.80;;
16430;SDS011;8325;49.284;7.238;2023-06-22T16:39:16;8.15;;;2.90;;
16430;SDS011;8325;49.284;7.238;2023-06-22T16:43:28;2.42;;;2.17;;
16430;SDS011;8325;49.284;7.238;2023-06-22T16:47:39;4.00;;;2.20;;
16430;SDS011;8325;49.284;7.238;2023-06-22T16:51:51;3.55;;;2.05;;
16430;SDS011;8325;49.284;7.238;2023-06-22T16:56:02;3.80;;;1.70;;
16430;SDS011;8325;49.284;7.238;2023-06-22T17:00:14;1.45;;;1.35;;
16430;SDS011;8325;49.284;7.238;2023-06-22T17:04:27;2.30;;;1.40;;
16430;SDS011;8325;49.284;7.238;2023-06-22T17:08:41;2.33;;;1.33;;
16430;SDS011;8325;49.284;7.238;2023-06-22T17:12:55;1.70;;;1.35;;
16430;SDS011;8325;49.284;7.238;2023-06-22T17:17:07;1.60;;;1.40;;
16430;SDS011;8325;49.284;7.238;2023-06-22T17:21:20;2.97;;;1.10;;
16430;SDS011;8325;49.284;7.238;2023-06-22T17:25:33;2.95;;;1.33;;
16430;SDS011;8325;49.284;7.238;2023-06-22T17:29:45;3.00;;;1.10;;
16430;SDS011;8325;49.284;7.238;2023-06-22T17:33:57;3.13;;;0.80;;
16430;SDS011;8325;49.284;7.238;2023-06-22T17:38:15;1.65;;;0.93;;
16430;SDS011;8325;49.284;7.238;2023-06-22T17:42:31;0.70;;;0.63;;
16430;SDS011;8325;49.284;7.238;2023-06-22T17:46:43;0.82;;;0.80;;
16430;SDS011;8325;49.284;7.238;2023-06-22T17:50:55;2.47;;;1.20;;
16430;SDS011;8325;49.284;7.238;2023-06-22T17:55:08;1.13;;;1.00;;
16430;SDS011;8325;49.284;7.238;2023-06-22T17:59:22;2.60;;;0.80;;
16430;SDS011;8325;49.284;7.238;2023-06-22T18:03:37;1.02;;;0.85;;
16430;SDS011;8325;49.284;7.238;2023-06-22T18:07:50;1.63;;;1.10;;
16430;SDS011;8325;49.284;7.238;2023-06-22T18:12:04;1.20;;;1.10;;
16430;SDS011;8325;49.284;7.238;2023-06-22T18:16:18;2.13;;;1.42;;
16430;SDS011;8325;49.284;7.238;2023-06-22T18:20:32;1.40;;;1.20;;
16430;SDS011;8325;49.284;7.238;2023-06-22T18:24:48;2.58;;;1.23;;
16430;SDS011;8325;49.284;7.238;2023-06-22T18:29:00;1.38;;;1.27;;
16430;SDS011;8325;49.284;7.238;2023-06-22T18:33:12;1.23;;;1.08;;
16430;SDS011;8325;49.284;7.238;2023-06-22T18:37:25;1.20;;;1.10;;
16430;SDS011;8325;49.284;7.238;2023-06-22T18:41:42;1.10;;;1.00;;
16430;SDS011;8325;49.284;7.238;2023-06-22T18:46:28;1.48;;;1.20;;
16430;SDS011;8325;49.284;7.238;2023-06-22T18:50:46;1.67;;;1.20;;
16430;SDS011;8325;49.284;7.238;2023-06-22T18:55:00;1.67;;;0.90;;
16430;SDS011;8325;49.284;7.238;2023-06-22T18:59:17;1.25;;;1.10;;
16430;SDS011;8325;49.284;7.238;2023-06-22T19:03:58;2.50;;;0.90;;
16430;SDS011;8325;49.284;7.238;2023-06-22T19:08:12;1.80;;;1.13;;
16430;SDS011;8325;49.284;7.238;2023-06-22T19:12:26;1.20;;;1.10;;
16430;SDS011;8325;49.284;7.238;2023-06-22T19:16:39;1.23;;;1.13;;
16430;SDS011;8325;49.284;7.238;2023-06-22T19:20:53;1.75;;;1.20;;
16430;SDS011;8325;49.284;7.238;2023-06-22T19:25:18;1.75;;;1.08;;
16430;SDS011;8325;49.284;7.238;2023-06-22T19:29:31;3.38;;;1.30;;
16430;SDS011;8325;49.284;7.238;2023-06-22T19:33:42;2.88;;;1.10;;
16430;SDS011;8325;49.284;7.238;2023-06-22T19:37:55;1.20;;;1.10;;
16430;SDS011;8325;49.284;7.238;2023-06-22T19:42:06;3.53;;;1.17;;
16430;SDS011;8325;49.284;7.238;2023-06-22T19:46:25;1.50;;;1.40;;
16430;SDS011;8325;49.284;7.238;2023-06-22T19:50:38;1.50;;;1.40;;
16430;SDS011;8325;49.284;7.238;2023-06-22T19:54:52;2.10;;;1.50;;
16430;SDS011;8325;49.284;7.238;2023-06-22T19:59:10;2.25;;;1.30;;
16430;SDS011;8325;49.284;7.238;2023-06-22T20:03:36;1.50;;;1.40;;
16430;SDS011;8325;49.284;7.238;2023-06-22T20:07:50;1.60;;;1.50;;
16430;SDS011;8325;49.284;7.238;2023-06-22T20:12:02;1.90;;;1.70;;
16430;SDS011;8325;49.284;7.238;2023-06-22T20:16:14;2.20;;;1.45;;
16430;SDS011;8325;49.284;7.238;2023-06-22T20:20:28;2.00;;;1.80;;
16430;SDS011;8325;49.284;7.238;2023-06-22T20:24:44;2.15;;;1.77;;
16430;SDS011;8325;49.284;7.238;2023-06-22T20:28:56;2.38;;;2.15;;
16430;SDS011;8325;49.284;7.238;2023-06-22T20:33:14;2.47;;;2.28;;
16430;SDS011;8325;49.284;7.238;2023-06-22T20:37:27;2.83;;;2.63;;
16430;SDS011;8325;49.284;7.238;2023-06-22T20:41:39;2.67;;;2.47;;
16430;SDS011;8325;49.284;7.238;2023-06-22T20:45:51;2.60;;;2.40;;
16430;SDS011;8325;49.284;7.238;2023-06-22T20:50:05;3.42;;;3.00;;
16430;SDS011;8325;49.284;7.238;2023-06-22T20:54:17;2.55;;;2.35;;
16430;SDS011;8325;49.284;7.238;2023-06-22T20:58:29;4.65;;;2.13;;
16430;SDS011;8325;49.284;7.238;2023-06-22T21:02:40;2.33;;;1.92;;
16430;SDS011;8325;49.284;7.238;2023-06-22T21:06:52;1.92;;;1.73;;
16430;SDS011;8325;49.284;7.238;2023-06-22T21:11:03;4.50;;;1.80;;
16430;SDS011;8325;49.284;7.238;2023-06-22T21:15:15;1.63;;;1.52;;
16430;SDS011;8325;49.284;7.238;2023-06-22T21:19:27;1.55;;;1.42;;
16430;SDS011;8325;49.284;7.238;2023-06-22T21:23:39;3.33;;;1.33;;
16430;SDS011;8325;49.284;7.238;2023-06-22T21:27:51;1.48;;;1.38;;
